Aeroporto :
LOGIN :

Iscrizione | Disclaimer

   EN    FR    IT 

 










Sommario :    VFR   VFR Marginale   IFR   IFR Intensivo   IFR Molto Intensivo
Visibilità : 
Base nubi : 
>= 8 km
>= 3000ft
5 / 8 km
1000 / 3000 ft
1500m / 5 km
500 / 1000 ft
800 / 1500m
200 / 500 ft
< 800m
< 200 ft
Simboli :   Temporali  Nebbia  Neve Forte  Precipitazioni Forti  Vento > 20 kt
SIGMETs :   Varie  Temporali  Ghiacco  Turbolenza  Onda orograficha  Ceneri Vulcaniche






- Altitudine del aeroporto : 39 ft
- Codice IATA : ANR


EBAW - Anvers / Antwerpen Deurne

ULTIMO METAR :
  • 271250Z 04008KT 4000 -RASN SCT004 BKN005 02/01 Q0993 TEMPO 2000 RASN

METARs OBSOLETI :
  • 271220Z 06009KT 4000 -RASN SCT005 BKN007 02/01 Q0993 TEMPO 2000 RASN
  • 271150Z 08009KT 5000 RA BKN005 BKN010 02/01 Q0993 TEMPO 3000 RASN
  • 271120Z 10009KT 6000 -RA SCT005 BKN006 03/01 Q0994 TEMPO 4000 -RASN
  • 271050Z 13008KT 7000 -RA SCT006 BKN007 03/02 Q0995 TEMPO 4000 -RASN BKN006
  • 271020Z 13010KT 7000 -RA SCT006 BKN007 03/02 Q0996 TEMPO 4000 -RASN BKN006
  • 270950Z 13009KT 8000 -RA SCT006 BKN007 03/02 Q0997 TEMPO 4000 -RASN BKN006

TAF TAF EBAW
Valido dal 27 a 12 ore il 27 a 21 ore UTC


271115Z 2712/2721 09008KT 8000 -RA BKN008
TEMPO 2712/2716 3000 RASN BKN004
PROB40
TEMPO 2712/2716 0500 SN BKN002
BECMG 2716/2719 30015G25KT 9999 NSW FEW012 SCT030
PROB30
TEMPO 2719/2721 4000 SHRAGS



MetMap, La meteo Aeronautica in un colpo d'occhio ! - Copyright ORBIFLY Dicembre 2007 - Disclaimer

ORBIFLY MET'MAP TEAM :

Programmazione e sviluppo : Alexandra Zaïnal
Concezione : Baudouin d'Aumeries
Aiuto per la programmazione : Marc-Olivier Méhu
Supporto tecnico e logistico : Manuel Goepfert
Aiuto per la traduzione : Arnaldo La Scala

Contatto : metmap@orbifly.com




FONTI E CREDITI :

   NOAA